sensor_id;sensor_type;location;lat;lon;timestamp;temperature;humidity
44775;DHT22;31340;51.402;0.016;2023-07-31T00:00:53;18.30;99.90
44775;DHT22;31340;51.402;0.016;2023-07-31T00:03:21;18.30;99.90
44775;DHT22;31340;51.402;0.016;2023-07-31T00:05:48;18.40;99.90
44775;DHT22;31340;51.402;0.016;2023-07-31T00:08:16;18.40;99.90
44775;DHT22;31340;51.402;0.016;2023-07-31T00:10:44;18.40;99.90
44775;DHT22;31340;51.402;0.016;2023-07-31T00:13:11;18.30;99.90
44775;DHT22;31340;51.402;0.016;2023-07-31T00:15:39;18.30;99.90
44775;DHT22;31340;51.402;0.016;2023-07-31T00:18:07;18.30;99.90
44775;DHT22;31340;51.402;0.016;2023-07-31T00:20:35;18.30;99.90
44775;DHT22;31340;51.402;0.016;2023-07-31T00:23:03;18.30;99.90
44775;DHT22;31340;51.402;0.016;2023-07-31T00:25:31;18.30;99.90
44775;DHT22;31340;51.402;0.016;2023-07-31T00:27:58;18.20;99.90
44775;DHT22;31340;51.402;0.016;2023-07-31T00:30:26;18.20;99.90
44775;DHT22;31340;51.402;0.016;2023-07-31T00:32:54;18.20;99.90
44775;DHT22;31340;51.402;0.016;2023-07-31T00:35:21;18.20;99.90
44775;DHT22;31340;51.402;0.016;2023-07-31T00:37:49;18.20;99.90
44775;DHT22;31340;51.402;0.016;2023-07-31T00:40:17;18.20;99.90
44775;DHT22;31340;51.402;0.016;2023-07-31T00:42:44;18.20;99.90
44775;DHT22;31340;51.402;0.016;2023-07-31T00:45:12;18.20;99.90
44775;DHT22;31340;51.402;0.016;2023-07-31T00:47:39;18.20;99.90
44775;DHT22;31340;51.402;0.016;2023-07-31T00:50:08;18.20;99.90
44775;DHT22;31340;51.402;0.016;2023-07-31T00:52:36;18.20;99.90
44775;DHT22;31340;51.402;0.016;2023-07-31T00:55:04;18.20;99.90
44775;DHT22;31340;51.402;0.016;2023-07-31T00:57:33;18.20;99.90
44775;DHT22;31340;51.402;0.016;2023-07-31T01:00:02;18.20;99.90
44775;DHT22;31340;51.402;0.016;2023-07-31T01:02:31;18.20;99.90
44775;DHT22;31340;51.402;0.016;2023-07-31T01:05:00;18.20;99.90
44775;DHT22;31340;51.402;0.016;2023-07-31T01:10:26;18.20;99.90
44775;DHT22;31340;51.402;0.016;2023-07-31T01:12:58;18.20;99.90
44775;DHT22;31340;51.402;0.016;2023-07-31T01:15:26;18.20;99.90
44775;DHT22;31340;51.402;0.016;2023-07-31T01:17:53;18.20;99.90
44775;DHT22;31340;51.402;0.016;2023-07-31T01:20:23;18.20;99.90
44775;DHT22;31340;51.402;0.016;2023-07-31T01:28:23;18.20;99.90
44775;DHT22;31340;51.402;0.016;2023-07-31T01:30:54;18.20;99.90
44775;DHT22;31340;51.402;0.016;2023-07-31T01:33:23;18.30;99.90
44775;DHT22;31340;51.402;0.016;2023-07-31T01:35:51;18.30;99.90
44775;DHT22;31340;51.402;0.016;2023-07-31T01:38:22;18.30;99.90
44775;DHT22;31340;51.402;0.016;2023-07-31T01:40:53;18.30;99.90
44775;DHT22;31340;51.402;0.016;2023-07-31T01:43:20;18.30;99.90
44775;DHT22;31340;51.402;0.016;2023-07-31T01:45:48;18.30;99.90
44775;DHT22;31340;51.402;0.016;2023-07-31T01:48:17;18.30;99.90
44775;DHT22;31340;51.402;0.016;2023-07-31T01:50:45;18.30;99.90
44775;DHT22;31340;51.402;0.016;2023-07-31T01:53:13;18.30;99.90
44775;DHT22;31340;51.402;0.016;2023-07-31T01:55:41;18.30;99.90
44775;DHT22;31340;51.402;0.016;2023-07-31T01:58:09;18.30;99.90
44775;DHT22;31340;51.402;0.016;2023-07-31T02:00:37;18.30;99.90
44775;DHT22;31340;51.402;0.016;2023-07-31T02:03:05;18.40;99.90
44775;DHT22;31340;51.402;0.016;2023-07-31T02:05:32;18.40;99.90
44775;DHT22;31340;51.402;0.016;2023-07-31T02:08:00;18.40;99.90
44775;DHT22;31340;51.402;0.016;2023-07-31T02:10:30;18.40;99.90
44775;DHT22;31340;51.402;0.016;2023-07-31T02:12:59;18.30;99.90
44775;DHT22;31340;51.402;0.016;2023-07-31T02:15:27;18.40;99.90
44775;DHT22;31340;51.402;0.016;2023-07-31T02:17:54;18.40;99.90
44775;DHT22;31340;51.402;0.016;2023-07-31T02:20:22;18.50;99.90
44775;DHT22;31340;51.402;0.016;2023-07-31T02:22:50;18.40;99.90
44775;DHT22;31340;51.402;0.016;2023-07-31T02:25:19;18.50;99.90
44775;DHT22;31340;51.402;0.016;2023-07-31T02:27:47;18.50;99.90
44775;DHT22;31340;51.402;0.016;2023-07-31T02:30:15;18.50;99.90
44775;DHT22;31340;51.402;0.016;2023-07-31T02:32:44;18.50;99.90
44775;DHT22;31340;51.402;0.016;2023-07-31T02:35:11;18.50;99.90
44775;DHT22;31340;51.402;0.016;2023-07-31T02:37:43;18.50;99.90
44775;DHT22;31340;51.402;0.016;2023-07-31T02:40:10;18.50;99.90
44775;DHT22;31340;51.402;0.016;2023-07-31T02:42:38;18.50;99.90
44775;DHT22;31340;51.402;0.016;2023-07-31T02:45:06;18.50;99.90
44775;DHT22;31340;51.402;0.016;2023-07-31T02:47:34;18.50;99.90
44775;DHT22;31340;51.402;0.016;2023-07-31T02:50:02;18.50;99.90
44775;DHT22;31340;51.402;0.016;2023-07-31T02:52:30;18.50;99.90
44775;DHT22;31340;51.402;0.016;2023-07-31T02:54:58;18.50;99.90
44775;DHT22;31340;51.402;0.016;2023-07-31T02:57:25;18.50;99.90
44775;DHT22;31340;51.402;0.016;2023-07-31T02:59:53;18.60;99.90
44775;DHT22;31340;51.402;0.016;2023-07-31T03:02:20;18.60;99.90
44775;DHT22;31340;51.402;0.016;2023-07-31T03:04:49;18.60;99.90
44775;DHT22;31340;51.402;0.016;2023-07-31T03:07:16;18.60;99.90
44775;DHT22;31340;51.402;0.016;2023-07-31T03:09:44;18.60;99.90
44775;DHT22;31340;51.402;0.016;2023-07-31T03:12:11;18.60;99.90
44775;DHT22;31340;51.402;0.016;2023-07-31T03:14:39;18.60;99.90
44775;DHT22;31340;51.402;0.016;2023-07-31T03:17:06;18.60;99.90
44775;DHT22;31340;51.402;0.016;2023-07-31T03:19:34;18.60;99.90
44775;DHT22;31340;51.402;0.016;2023-07-31T03:22:02;18.70;99.90
44775;DHT22;31340;51.402;0.016;2023-07-31T03:24:29;18.70;99.90
44775;DHT22;31340;51.402;0.016;2023-07-31T03:26:57;18.70;99.90
44775;DHT22;31340;51.402;0.016;2023-07-31T03:29:24;18.70;99.90
44775;DHT22;31340;51.402;0.016;2023-07-31T03:31:52;18.70;99.90
44775;DHT22;31340;51.402;0.016;2023-07-31T03:34:20;18.70;99.90
44775;DHT22;31340;51.402;0.016;2023-07-31T03:36:48;18.70;99.90
44775;DHT22;31340;51.402;0.016;2023-07-31T03:39:16;18.70;99.90
44775;DHT22;31340;51.402;0.016;2023-07-31T03:41:43;18.80;99.90
44775;DHT22;31340;51.402;0.016;2023-07-31T03:44:11;18.70;99.90
44775;DHT22;31340;51.402;0.016;2023-07-31T03:46:38;18.80;99.90
44775;DHT22;31340;51.402;0.016;2023-07-31T03:49:07;18.70;99.90
44775;DHT22;31340;51.402;0.016;2023-07-31T03:51:35;18.80;99.90
44775;DHT22;31340;51.402;0.016;2023-07-31T03:54:03;18.80;99.90
44775;DHT22;31340;51.402;0.016;2023-07-31T03:56:31;18.80;99.90
44775;DHT22;31340;51.402;0.016;2023-07-31T03:59:02;18.80;99.90
44775;DHT22;31340;51.402;0.016;2023-07-31T04:01:30;18.80;99.90
44775;DHT22;31340;51.402;0.016;2023-07-31T04:03:58;18.80;99.90
44775;DHT22;31340;51.402;0.016;2023-07-31T04:06:26;18.80;99.90
44775;DHT22;31340;51.402;0.016;2023-07-31T04:08:53;18.80;99.90
44775;DHT22;31340;51.402;0.016;2023-07-31T04:11:21;18.80;99.90
44775;DHT22;31340;51.402;0.016;2023-07-31T04:13:49;18.90;99.90
44775;DHT22;31340;51.402;0.016;2023-07-31T04:16:16;18.90;99.90
44775;DHT22;31340;51.402;0.016;2023-07-31T04:18:45;18.90;99.90
44775;DHT22;31340;51.402;0.016;2023-07-31T04:21:12;18.90;99.90
44775;DHT22;31340;51.402;0.016;2023-07-31T04:23:40;18.90;99.90
44775;DHT22;31340;51.402;0.016;2023-07-31T04:26:07;18.90;99.90
44775;DHT22;31340;51.402;0.016;2023-07-31T04:28:35;18.90;99.90
44775;DHT22;31340;51.402;0.016;2023-07-31T04:31:04;18.90;99.90
44775;DHT22;31340;51.402;0.016;2023-07-31T04:33:31;18.90;99.90
44775;DHT22;31340;51.402;0.016;2023-07-31T04:35:59;18.90;99.90
44775;DHT22;31340;51.402;0.016;2023-07-31T04:38:26;18.90;99.90
44775;DHT22;31340;51.402;0.016;2023-07-31T04:40:54;19.00;99.90
44775;DHT22;31340;51.402;0.016;2023-07-31T04:43:22;19.00;99.90
44775;DHT22;31340;51.402;0.016;2023-07-31T04:45:50;19.00;99.90
44775;DHT22;31340;51.402;0.016;2023-07-31T04:48:18;19.00;99.90
44775;DHT22;31340;51.402;0.016;2023-07-31T04:50:46;19.00;99.90
44775;DHT22;31340;51.402;0.016;2023-07-31T04:53:13;19.00;99.90
44775;DHT22;31340;51.402;0.016;2023-07-31T04:55:41;19.00;99.90
44775;DHT22;31340;51.402;0.016;2023-07-31T04:58:09;19.00;99.90
44775;DHT22;31340;51.402;0.016;2023-07-31T05:00:37;19.00;99.90
44775;DHT22;31340;51.402;0.016;2023-07-31T05:03:04;19.10;99.90
44775;DHT22;31340;51.402;0.016;2023-07-31T05:05:32;19.10;99.90
44775;DHT22;31340;51.402;0.016;2023-07-31T05:08:00;19.10;99.90
44775;DHT22;31340;51.402;0.016;2023-07-31T05:10:27;19.10;99.90
44775;DHT22;31340;51.402;0.016;2023-07-31T05:12:55;19.10;99.90
44775;DHT22;31340;51.402;0.016;2023-07-31T05:15:23;19.10;99.90
44775;DHT22;31340;51.402;0.016;2023-07-31T05:17:50;19.10;99.90
44775;DHT22;31340;51.402;0.016;2023-07-31T05:20:18;19.10;99.90
44775;DHT22;31340;51.402;0.016;2023-07-31T05:22:46;19.10;99.90
44775;DHT22;31340;51.402;0.016;2023-07-31T05:25:14;19.10;99.90
44775;DHT22;31340;51.402;0.016;2023-07-31T05:27:41;19.10;99.90
44775;DHT22;31340;51.402;0.016;2023-07-31T05:30:09;19.10;99.90
44775;DHT22;31340;51.402;0.016;2023-07-31T05:32:37;19.20;99.90
44775;DHT22;31340;51.402;0.016;2023-07-31T05:35:05;19.10;99.90
44775;DHT22;31340;51.402;0.016;2023-07-31T05:37:33;19.20;99.90
44775;DHT22;31340;51.402;0.016;2023-07-31T05:40:00;19.20;99.90
44775;DHT22;31340;51.402;0.016;2023-07-31T05:42:28;19.20;99.90
44775;DHT22;31340;51.402;0.016;2023-07-31T05:44:56;19.20;99.90
44775;DHT22;31340;51.402;0.016;2023-07-31T05:47:24;19.20;99.90
44775;DHT22;31340;51.402;0.016;2023-07-31T05:49:51;19.20;99.90
44775;DHT22;31340;51.402;0.016;2023-07-31T05:52:20;19.20;99.90
44775;DHT22;31340;51.402;0.016;2023-07-31T05:54:48;19.30;99.90
44775;DHT22;31340;51.402;0.016;2023-07-31T05:57:16;19.30;99.90
44775;DHT22;31340;51.402;0.016;2023-07-31T05:59:43;19.30;99.90
44775;DHT22;31340;51.402;0.016;2023-07-31T06:02:11;19.30;99.90
44775;DHT22;31340;51.402;0.016;2023-07-31T06:04:39;19.30;99.90
44775;DHT22;31340;51.402;0.016;2023-07-31T06:07:07;19.40;99.90
44775;DHT22;31340;51.402;0.016;2023-07-31T06:09:35;19.40;99.90
44775;DHT22;31340;51.402;0.016;2023-07-31T06:12:03;19.50;99.90
44775;DHT22;31340;51.402;0.016;2023-07-31T06:14:31;19.50;99.90
44775;DHT22;31340;51.402;0.016;2023-07-31T06:16:59;19.60;99.90
44775;DHT22;31340;51.402;0.016;2023-07-31T06:19:27;19.60;99.90
44775;DHT22;31340;51.402;0.016;2023-07-31T06:21:54;19.60;99.90
44775;DHT22;31340;51.402;0.016;2023-07-31T06:24:22;19.60;99.90
44775;DHT22;31340;51.402;0.016;2023-07-31T06:26:50;19.70;99.90
44775;DHT22;31340;51.402;0.016;2023-07-31T06:29:18;19.70;99.90
44775;DHT22;31340;51.402;0.016;2023-07-31T06:31:46;19.70;99.90
44775;DHT22;31340;51.402;0.016;2023-07-31T06:34:14;19.70;99.90
44775;DHT22;31340;51.402;0.016;2023-07-31T06:36:42;19.80;99.90
44775;DHT22;31340;51.402;0.016;2023-07-31T06:39:10;19.80;99.90
44775;DHT22;31340;51.402;0.016;2023-07-31T06:41:38;19.90;99.90
44775;DHT22;31340;51.402;0.016;2023-07-31T06:44:10;19.90;99.90
44775;DHT22;31340;51.402;0.016;2023-07-31T06:46:38;19.90;99.90
44775;DHT22;31340;51.402;0.016;2023-07-31T06:49:06;20.00;99.90
44775;DHT22;31340;51.402;0.016;2023-07-31T06:51:34;20.00;99.90
44775;DHT22;31340;51.402;0.016;2023-07-31T06:54:03;20.10;99.90
44775;DHT22;31340;51.402;0.016;2023-07-31T06:56:31;20.10;99.90
44775;DHT22;31340;51.402;0.016;2023-07-31T06:58:58;20.20;99.90
44775;DHT22;31340;51.402;0.016;2023-07-31T07:01:26;20.20;99.90
44775;DHT22;31340;51.402;0.016;2023-07-31T07:03:56;20.30;99.90
44775;DHT22;31340;51.402;0.016;2023-07-31T07:06:23;20.30;99.90
44775;DHT22;31340;51.402;0.016;2023-07-31T07:08:51;20.30;99.90
44775;DHT22;31340;51.402;0.016;2023-07-31T07:11:18;20.40;99.90
44775;DHT22;31340;51.402;0.016;2023-07-31T07:13:46;20.40;99.90
44775;DHT22;31340;51.402;0.016;2023-07-31T07:16:14;20.40;99.90
44775;DHT22;31340;51.402;0.016;2023-07-31T07:18:42;20.40;99.90
44775;DHT22;31340;51.402;0.016;2023-07-31T07:21:24;20.50;99.90
44775;DHT22;31340;51.402;0.016;2023-07-31T07:23:52;20.50;99.90
44775;DHT22;31340;51.402;0.016;2023-07-31T07:26:20;20.50;99.90
44775;DHT22;31340;51.402;0.016;2023-07-31T07:28:48;20.60;99.90
44775;DHT22;31340;51.402;0.016;2023-07-31T07:31:15;20.60;99.90
44775;DHT22;31340;51.402;0.016;2023-07-31T07:33:43;20.60;99.90
44775;DHT22;31340;51.402;0.016;2023-07-31T07:36:11;20.60;99.90
44775;DHT22;31340;51.402;0.016;2023-07-31T07:38:40;20.70;99.90
44775;DHT22;31340;51.402;0.016;2023-07-31T07:41:08;20.70;99.90
44775;DHT22;31340;51.402;0.016;2023-07-31T07:43:36;20.70;99.90
44775;DHT22;31340;51.402;0.016;2023-07-31T07:46:04;20.70;99.90
44775;DHT22;31340;51.402;0.016;2023-07-31T07:48:31;20.70;99.90
44775;DHT22;31340;51.402;0.016;2023-07-31T07:50:59;20.80;99.90
44775;DHT22;31340;51.402;0.016;2023-07-31T07:53:26;20.80;99.90
44775;DHT22;31340;51.402;0.016;2023-07-31T07:55:54;20.90;99.90
44775;DHT22;31340;51.402;0.016;2023-07-31T07:58:22;20.90;99.90
44775;DHT22;31340;51.402;0.016;2023-07-31T08:00:51;20.90;99.90
44775;DHT22;31340;51.402;0.016;2023-07-31T08:03:19;21.00;99.90
44775;DHT22;31340;51.402;0.016;2023-07-31T08:05:48;21.10;99.90
44775;DHT22;31340;51.402;0.016;2023-07-31T08:08:15;21.00;99.90
44775;DHT22;31340;51.402;0.016;2023-07-31T08:10:47;21.00;99.90
44775;DHT22;31340;51.402;0.016;2023-07-31T08:13:15;21.00;99.90
44775;DHT22;31340;51.402;0.016;2023-07-31T08:15:43;21.00;99.90
44775;DHT22;31340;51.402;0.016;2023-07-31T08:18:11;21.10;99.90
44775;DHT22;31340;51.402;0.016;2023-07-31T08:20:39;21.00;99.90
44775;DHT22;31340;51.402;0.016;2023-07-31T08:23:07;21.10;99.90
44775;DHT22;31340;51.402;0.016;2023-07-31T08:25:35;21.20;99.90
44775;DHT22;31340;51.402;0.016;2023-07-31T08:28:04;21.20;99.90
44775;DHT22;31340;51.402;0.016;2023-07-31T08:30:33;21.20;99.90
44775;DHT22;31340;51.402;0.016;2023-07-31T08:33:04;21.30;99.90
44775;DHT22;31340;51.402;0.016;2023-07-31T08:35:31;21.40;99.90
44775;DHT22;31340;51.402;0.016;2023-07-31T08:37:59;21.40;99.90
44775;DHT22;31340;51.402;0.016;2023-07-31T08:40:28;21.50;99.90
44775;DHT22;31340;51.402;0.016;2023-07-31T08:42:56;21.60;99.90
44775;DHT22;31340;51.402;0.016;2023-07-31T08:45:24;21.70;99.90
44775;DHT22;31340;51.402;0.016;2023-07-31T08:47:52;21.80;99.90
44775;DHT22;31340;51.402;0.016;2023-07-31T08:50:20;21.80;99.90
44775;DHT22;31340;51.402;0.016;2023-07-31T08:52:50;21.90;99.90
44775;DHT22;31340;51.402;0.016;2023-07-31T08:55:19;21.90;99.90
44775;DHT22;31340;51.402;0.016;2023-07-31T08:57:52;22.00;99.90
44775;DHT22;31340;51.402;0.016;2023-07-31T09:00:23;22.00;99.90
44775;DHT22;31340;51.402;0.016;2023-07-31T09:03:02;22.00;99.90
44775;DHT22;31340;51.402;0.016;2023-07-31T09:05:31;22.00;99.90
44775;DHT22;31340;51.402;0.016;2023-07-31T09:08:00;22.10;99.90
44775;DHT22;31340;51.402;0.016;2023-07-31T09:10:29;22.10;99.90
44775;DHT22;31340;51.402;0.016;2023-07-31T09:12:57;22.10;99.90
44775;DHT22;31340;51.402;0.016;2023-07-31T09:15:25;22.10;99.90
44775;DHT22;31340;51.402;0.016;2023-07-31T09:18:06;22.20;99.90
44775;DHT22;31340;51.402;0.016;2023-07-31T09:20:34;22.10;99.90
44775;DHT22;31340;51.402;0.016;2023-07-31T09:23:12;22.10;99.90
44775;DHT22;31340;51.402;0.016;2023-07-31T09:25:43;22.10;99.90
44775;DHT22;31340;51.402;0.016;2023-07-31T09:28:12;22.10;99.90
44775;DHT22;31340;51.402;0.016;2023-07-31T09:30:49;22.10;99.90
44775;DHT22;31340;51.402;0.016;2023-07-31T09:33:18;22.10;99.90
44775;DHT22;31340;51.402;0.016;2023-07-31T09:35:47;22.00;99.90
44775;DHT22;31340;51.402;0.016;2023-07-31T09:38:16;22.10;99.90
44775;DHT22;31340;51.402;0.016;2023-07-31T09:40:46;22.00;99.90
44775;DHT22;31340;51.402;0.016;2023-07-31T09:43:20;22.10;99.90
44775;DHT22;31340;51.402;0.016;2023-07-31T09:45:52;22.10;99.90
44775;DHT22;31340;51.402;0.016;2023-07-31T09:48:23;22.10;99.90
44775;DHT22;31340;51.402;0.016;2023-07-31T09:50:53;22.10;99.90
44775;DHT22;31340;51.402;0.016;2023-07-31T09:53:28;22.10;99.90
44775;DHT22;31340;51.402;0.016;2023-07-31T09:55:58;22.10;99.90
44775;DHT22;31340;51.402;0.016;2023-07-31T09:58:28;22.10;99.90
44775;DHT22;31340;51.402;0.016;2023-07-31T10:00:57;22.10;99.90
44775;DHT22;31340;51.402;0.016;2023-07-31T10:03:26;22.00;99.90
44775;DHT22;31340;51.402;0.016;2023-07-31T10:05:56;22.10;99.90
44775;DHT22;31340;51.402;0.016;2023-07-31T10:08:28;22.10;99.90
44775;DHT22;31340;51.402;0.016;2023-07-31T10:10:59;22.20;99.90
44775;DHT22;31340;51.402;0.016;2023-07-31T10:13:28;22.20;99.90
44775;DHT22;31340;51.402;0.016;2023-07-31T10:16:00;22.30;99.90
44775;DHT22;31340;51.402;0.016;2023-07-31T10:18:31;22.40;99.90
44775;DHT22;31340;51.402;0.016;2023-07-31T10:20:59;22.50;99.90
44775;DHT22;31340;51.402;0.016;2023-07-31T10:23:30;22.50;99.90
44775;DHT22;31340;51.402;0.016;2023-07-31T10:25:58;22.60;99.90
44775;DHT22;31340;51.402;0.016;2023-07-31T10:28:29;22.60;99.90
44775;DHT22;31340;51.402;0.016;2023-07-31T10:31:01;22.60;99.90
44775;DHT22;31340;51.402;0.016;2023-07-31T10:33:30;22.70;99.90
44775;DHT22;31340;51.402;0.016;2023-07-31T10:36:19;22.70;99.90
44775;DHT22;31340;51.402;0.016;2023-07-31T10:38:50;22.70;99.90
44775;DHT22;31340;51.402;0.016;2023-07-31T10:41:30;22.70;99.90
44775;DHT22;31340;51.402;0.016;2023-07-31T10:44:00;22.80;99.90
44775;DHT22;31340;51.402;0.016;2023-07-31T10:46:28;22.80;99.90
44775;DHT22;31340;51.402;0.016;2023-07-31T10:49:02;22.80;99.90
44775;DHT22;31340;51.402;0.016;2023-07-31T10:51:34;22.80;99.90
44775;DHT22;31340;51.402;0.016;2023-07-31T10:54:13;22.90;99.90
44775;DHT22;31340;51.402;0.016;2023-07-31T10:56:45;22.90;99.90
44775;DHT22;31340;51.402;0.016;2023-07-31T10:59:13;22.90;99.90
44775;DHT22;31340;51.402;0.016;2023-07-31T11:01:55;22.90;99.90
44775;DHT22;31340;51.402;0.016;2023-07-31T11:04:26;22.90;99.90
44775;DHT22;31340;51.402;0.016;2023-07-31T11:06:59;22.90;99.90
44775;DHT22;31340;51.402;0.016;2023-07-31T11:09:31;23.00;99.90
44775;DHT22;31340;51.402;0.016;2023-07-31T11:12:00;23.00;99.90
44775;DHT22;31340;51.402;0.016;2023-07-31T11:14:27;23.00;99.90
44775;DHT22;31340;51.402;0.016;2023-07-31T11:16:55;23.10;99.90
44775;DHT22;31340;51.402;0.016;2023-07-31T11:19:24;23.10;99.90
44775;DHT22;31340;51.402;0.016;2023-07-31T11:21:52;23.10;99.90
44775;DHT22;31340;51.402;0.016;2023-07-31T11:24:20;23.10;99.90
44775;DHT22;31340;51.402;0.016;2023-07-31T11:26:52;23.20;99.90
44775;DHT22;31340;51.402;0.016;2023-07-31T11:29:20;23.20;99.90
44775;DHT22;31340;51.402;0.016;2023-07-31T11:31:48;23.10;99.90
44775;DHT22;31340;51.402;0.016;2023-07-31T11:34:16;23.10;99.90
44775;DHT22;31340;51.402;0.016;2023-07-31T11:36:54;23.10;99.90
44775;DHT22;31340;51.402;0.016;2023-07-31T11:39:22;23.10;99.90
44775;DHT22;31340;51.402;0.016;2023-07-31T11:41:50;23.20;99.90
44775;DHT22;31340;51.402;0.016;2023-07-31T11:44:18;23.20;99.90
44775;DHT22;31340;51.402;0.016;2023-07-31T11:46:56;23.20;98.90
44775;DHT22;31340;51.402;0.016;2023-07-31T11:49:24;23.30;98.20
44775;DHT22;31340;51.402;0.016;2023-07-31T11:51:53;23.30;96.00
44775;DHT22;31340;51.402;0.016;2023-07-31T11:54:20;23.30;95.60
44775;DHT22;31340;51.402;0.016;2023-07-31T11:56:48;23.30;94.90
44775;DHT22;31340;51.402;0.016;2023-07-31T11:59:17;23.30;94.50
44775;DHT22;31340;51.402;0.016;2023-07-31T12:01:44;23.30;94.00
44775;DHT22;31340;51.402;0.016;2023-07-31T12:04:12;23.30;93.70
44775;DHT22;31340;51.402;0.016;2023-07-31T12:06:40;23.30;93.60
44775;DHT22;31340;51.402;0.016;2023-07-31T12:09:07;23.30;93.40
44775;DHT22;31340;51.402;0.016;2023-07-31T12:11:47;23.40;93.50
44775;DHT22;31340;51.402;0.016;2023-07-31T12:14:25;23.50;93.80
44775;DHT22;31340;51.402;0.016;2023-07-31T12:17:04;23.50;93.40
44775;DHT22;31340;51.402;0.016;2023-07-31T12:19:32;23.50;93.20
44775;DHT22;31340;51.402;0.016;2023-07-31T12:22:00;23.70;93.30
44775;DHT22;31340;51.402;0.016;2023-07-31T12:24:28;23.70;93.10
44775;DHT22;31340;51.402;0.016;2023-07-31T12:26:55;23.80;93.30
44775;DHT22;31340;51.402;0.016;2023-07-31T12:29:23;23.70;92.80
44775;DHT22;31340;51.402;0.016;2023-07-31T12:31:50;23.80;92.40
44775;DHT22;31340;51.402;0.016;2023-07-31T12:34:20;23.70;92.30
44775;DHT22;31340;51.402;0.016;2023-07-31T12:36:53;23.60;92.10
44775;DHT22;31340;51.402;0.016;2023-07-31T12:39:20;23.60;91.90
44775;DHT22;31340;51.402;0.016;2023-07-31T12:41:48;23.50;92.50
44775;DHT22;31340;51.402;0.016;2023-07-31T12:44:16;23.30;92.40
44775;DHT22;31340;51.402;0.016;2023-07-31T12:46:43;23.30;92.50
44775;DHT22;31340;51.402;0.016;2023-07-31T12:49:11;23.20;92.60
44775;DHT22;31340;51.402;0.016;2023-07-31T12:51:39;23.10;92.80
44775;DHT22;31340;51.402;0.016;2023-07-31T12:54:07;23.00;93.10
44775;DHT22;31340;51.402;0.016;2023-07-31T12:56:34;23.00;93.40
44775;DHT22;31340;51.402;0.016;2023-07-31T12:59:02;23.00;93.60
44775;DHT22;31340;51.402;0.016;2023-07-31T13:01:29;23.00;93.50
44775;DHT22;31340;51.402;0.016;2023-07-31T13:03:57;22.90;93.40
44775;DHT22;31340;51.402;0.016;2023-07-31T13:06:25;22.80;93.60
44775;DHT22;31340;51.402;0.016;2023-07-31T13:08:53;22.70;93.80
44775;DHT22;31340;51.402;0.016;2023-07-31T13:11:20;22.70;94.20
44775;DHT22;31340;51.402;0.016;2023-07-31T13:13:48;22.60;94.40
44775;DHT22;31340;51.402;0.016;2023-07-31T13:16:16;22.50;95.00
44775;DHT22;31340;51.402;0.016;2023-07-31T13:18:43;22.40;95.40
44775;DHT22;31340;51.402;0.016;2023-07-31T13:21:11;22.30;95.30
44775;DHT22;31340;51.402;0.016;2023-07-31T13:23:39;22.20;95.40
44775;DHT22;31340;51.402;0.016;2023-07-31T13:26:06;22.00;96.00
44775;DHT22;31340;51.402;0.016;2023-07-31T13:28:34;21.90;96.30
44775;DHT22;31340;51.402;0.016;2023-07-31T13:31:01;21.80;96.70
44775;DHT22;31340;51.402;0.016;2023-07-31T13:33:29;21.70;97.30
44775;DHT22;31340;51.402;0.016;2023-07-31T13:36:05;21.60;97.90
44775;DHT22;31340;51.402;0.016;2023-07-31T13:38:32;21.50;98.10
44775;DHT22;31340;51.402;0.016;2023-07-31T13:41:00;21.50;98.40
44775;DHT22;31340;51.402;0.016;2023-07-31T13:43:28;21.30;98.50
44775;DHT22;31340;51.402;0.016;2023-07-31T13:45:55;21.30;98.80
44775;DHT22;31340;51.402;0.016;2023-07-31T13:48:23;21.20;98.90
44775;DHT22;31340;51.402;0.016;2023-07-31T13:50:51;21.10;99.30
44775;DHT22;31340;51.402;0.016;2023-07-31T13:53:18;21.00;99.80
44775;DHT22;31340;51.402;0.016;2023-07-31T13:55:46;21.00;99.90
44775;DHT22;31340;51.402;0.016;2023-07-31T13:58:13;20.90;99.90
44775;DHT22;31340;51.402;0.016;2023-07-31T14:00:41;20.80;99.90
44775;DHT22;31340;51.402;0.016;2023-07-31T14:03:09;20.70;99.90
44775;DHT22;31340;51.402;0.016;2023-07-31T14:05:37;20.60;99.90
44775;DHT22;31340;51.402;0.016;2023-07-31T14:08:05;20.50;99.90
44775;DHT22;31340;51.402;0.016;2023-07-31T14:10:33;20.50;99.90
44775;DHT22;31340;51.402;0.016;2023-07-31T14:13:00;20.40;99.90
44775;DHT22;31340;51.402;0.016;2023-07-31T14:15:28;20.30;99.90
44775;DHT22;31340;51.402;0.016;2023-07-31T14:17:57;20.20;99.90
44775;DHT22;31340;51.402;0.016;2023-07-31T14:20:29;20.20;99.90
44775;DHT22;31340;51.402;0.016;2023-07-31T14:22:57;20.10;99.90
44775;DHT22;31340;51.402;0.016;2023-07-31T14:25:25;20.00;99.90
44775;DHT22;31340;51.402;0.016;2023-07-31T14:27:52;19.90;99.90
44775;DHT22;31340;51.402;0.016;2023-07-31T14:30:20;19.80;99.90
44775;DHT22;31340;51.402;0.016;2023-07-31T14:32:47;19.80;99.90
44775;DHT22;31340;51.402;0.016;2023-07-31T14:35:15;19.70;99.90
44775;DHT22;31340;51.402;0.016;2023-07-31T14:37:44;19.70;99.90
44775;DHT22;31340;51.402;0.016;2023-07-31T14:40:13;19.70;99.90
44775;DHT22;31340;51.402;0.016;2023-07-31T14:42:41;19.60;99.90
44775;DHT22;31340;51.402;0.016;2023-07-31T14:45:09;19.50;99.90
44775;DHT22;31340;51.402;0.016;2023-07-31T14:47:37;19.50;99.90
44775;DHT22;31340;51.402;0.016;2023-07-31T14:50:06;19.50;99.90
44775;DHT22;31340;51.402;0.016;2023-07-31T14:52:33;19.50;99.90
44775;DHT22;31340;51.402;0.016;2023-07-31T14:55:01;19.50;99.90
44775;DHT22;31340;51.402;0.016;2023-07-31T14:57:29;19.50;99.90
44775;DHT22;31340;51.402;0.016;2023-07-31T14:59:57;19.40;99.90
44775;DHT22;31340;51.402;0.016;2023-07-31T15:02:26;19.40;99.90
44775;DHT22;31340;51.402;0.016;2023-07-31T15:04:55;19.40;99.90
44775;DHT22;31340;51.402;0.016;2023-07-31T15:07:22;19.40;99.90
44775;DHT22;31340;51.402;0.016;2023-07-31T15:09:50;19.40;99.90
44775;DHT22;31340;51.402;0.016;2023-07-31T15:12:18;19.40;99.90
44775;DHT22;31340;51.402;0.016;2023-07-31T15:14:45;19.40;99.90
44775;DHT22;31340;51.402;0.016;2023-07-31T15:17:13;19.40;99.90
44775;DHT22;31340;51.402;0.016;2023-07-31T15:19:41;19.50;99.90
44775;DHT22;31340;51.402;0.016;2023-07-31T15:22:09;19.50;99.90
44775;DHT22;31340;51.402;0.016;2023-07-31T15:24:37;19.50;99.90
44775;DHT22;31340;51.402;0.016;2023-07-31T15:27:05;19.60;99.90
44775;DHT22;31340;51.402;0.016;2023-07-31T15:29:32;19.70;99.90
44775;DHT22;31340;51.402;0.016;2023-07-31T15:32:03;19.70;99.90
44775;DHT22;31340;51.402;0.016;2023-07-31T15:34:32;19.80;99.90
44775;DHT22;31340;51.402;0.016;2023-07-31T15:37:00;19.90;99.90
44775;DHT22;31340;51.402;0.016;2023-07-31T15:39:27;20.00;99.90
44775;DHT22;31340;51.402;0.016;2023-07-31T15:41:55;20.10;99.90
44775;DHT22;31340;51.402;0.016;2023-07-31T15:44:22;20.20;99.90
44775;DHT22;31340;51.402;0.016;2023-07-31T15:46:53;20.30;99.90